createdAt,value
2023-05-21T00:01:00.908Z,5.25
2023-05-21T00:04:06.184Z,5.60
2023-05-21T00:07:08.471Z,5.40
2023-05-21T00:10:11.154Z,4.82
2023-05-21T00:13:13.375Z,5.32
2023-05-21T00:16:15.705Z,5.25
2023-05-21T00:19:19.421Z,5.43
2023-05-21T00:22:21.679Z,5.70
2023-05-21T00:25:23.883Z,5.68
2023-05-21T00:28:26.181Z,5.93
2023-05-21T00:31:30.019Z,5.88
2023-05-21T00:34:33.595Z,6.10
2023-05-21T00:37:35.834Z,4.85
2023-05-21T00:40:41.120Z,4.57
2023-05-21T00:43:44.558Z,6.25
2023-05-21T00:46:48.860Z,7.78
2023-05-21T00:49:53.407Z,5.72
2023-05-21T00:52:55.725Z,5.38
2023-05-21T00:55:58.041Z,5.88
2023-05-21T00:59:00.538Z,5.97
2023-05-21T01:02:05.519Z,5.03
2023-05-21T01:05:10.652Z,4.80
2023-05-21T01:08:12.909Z,5.57
2023-05-21T01:11:15.271Z,5.38
2023-05-21T01:14:18.874Z,4.90
2023-05-21T01:17:24.384Z,5.32
2023-05-21T01:20:30.505Z,5.47
2023-05-21T01:23:34.167Z,4.78
2023-05-21T01:26:38.720Z,5.75
2023-05-21T01:29:40.997Z,5.13
2023-05-21T01:32:49.044Z,6.05
2023-05-21T01:35:55.679Z,5.30
2023-05-21T01:39:02.239Z,4.53
2023-05-21T01:42:06.873Z,4.88
2023-05-21T01:45:10.231Z,4.35
2023-05-21T01:48:13.131Z,4.45
2023-05-21T01:51:15.844Z,4.88
2023-05-21T01:54:20.163Z,4.90
2023-05-21T01:57:22.699Z,5.43
2023-05-21T02:00:28.222Z,4.72
2023-05-21T02:03:31.471Z,3.85
2023-05-21T02:06:35.863Z,5.03
2023-05-21T02:09:39.544Z,5.18
2023-05-21T02:12:41.820Z,4.00
2023-05-21T02:15:44.902Z,6.07
2023-05-21T02:18:51.408Z,4.15
2023-05-21T02:21:53.746Z,4.18
2023-05-21T02:24:57.383Z,4.32
2023-05-21T02:28:00.936Z,4.20
2023-05-21T02:31:03.231Z,3.53
2023-05-21T02:34:08.065Z,3.80
2023-05-21T02:37:10.373Z,3.28
2023-05-21T02:40:14.194Z,3.65
2023-05-21T02:43:16.653Z,3.72
2023-05-21T02:46:19.472Z,4.03
2023-05-21T02:49:21.829Z,3.65
2023-05-21T02:52:24.239Z,3.72
2023-05-21T02:55:28.475Z,3.42
2023-05-21T02:58:31.164Z,4.55
2023-05-21T03:01:33.469Z,3.70
2023-05-21T03:04:38.988Z,3.42
2023-05-21T03:07:42.435Z,3.50
2023-05-21T03:10:47.383Z,3.78
2023-05-21T03:13:49.632Z,3.70
2023-05-21T03:16:51.956Z,4.25
2023-05-21T03:19:54.745Z,3.83
2023-05-21T03:22:57.082Z,4.18
2023-05-21T03:26:02.255Z,3.38
2023-05-21T03:29:04.491Z,3.80
2023-05-21T03:32:07.685Z,3.75
2023-05-21T03:35:10.393Z,3.33
2023-05-21T03:38:12.712Z,3.95
2023-05-21T03:41:16.438Z,3.70
2023-05-21T03:44:22.472Z,4.13
2023-05-21T03:47:30.650Z,3.75
2023-05-21T03:50:33.649Z,4.05
2023-05-21T03:53:35.899Z,4.07
2023-05-21T03:56:39.569Z,3.50
2023-05-21T03:59:41.822Z,4.20
2023-05-21T04:02:44.460Z,3.97
2023-05-21T04:05:50.781Z,4.03
2023-05-21T04:08:53.245Z,4.22
2023-05-21T04:11:56.882Z,3.63
2023-05-21T04:14:59.149Z,4.88
2023-05-21T04:18:01.593Z,3.65
2023-05-21T04:21:04.750Z,3.83
2023-05-21T04:24:07.766Z,4.03
2023-05-21T04:27:24.906Z,3.50
2023-05-21T04:30:28.111Z,4.30
2023-05-21T04:33:30.683Z,4.15
2023-05-21T04:36:33.741Z,3.90
2023-05-21T04:39:36.313Z,3.85
2023-05-21T04:42:41.160Z,3.92
2023-05-21T04:45:43.768Z,3.65
2023-05-21T04:48:46.809Z,3.60
2023-05-21T04:51:52.078Z,4.22
2023-05-21T04:54:54.427Z,3.33
2023-05-21T04:57:58.064Z,3.75
2023-05-21T05:01:04.410Z,3.38
2023-05-21T05:04:06.872Z,4.13
2023-05-21T05:07:09.130Z,4.15
2023-05-21T05:10:11.478Z,3.60
2023-05-21T05:13:15.095Z,3.47
2023-05-21T05:16:18.524Z,3.28
2023-05-21T05:19:21.035Z,3.72
2023-05-21T05:22:23.434Z,4.03
2023-05-21T05:25:27.062Z,3.80
2023-05-21T05:28:30.920Z,3.08
2023-05-21T05:31:34.994Z,3.70
2023-05-21T05:34:37.738Z,3.85
2023-05-21T05:37:40.795Z,4.60
2023-05-21T05:40:43.116Z,3.95
2023-05-21T05:43:46.733Z,4.07
2023-05-21T05:46:50.692Z,4.00
2023-05-21T05:49:54.017Z,3.53
2023-05-21T05:52:56.962Z,3.58
2023-05-21T05:55:59.795Z,3.72
2023-05-21T05:59:05.510Z,3.13
2023-05-21T06:02:11.149Z,3.50
2023-05-21T06:05:13.587Z,4.53
2023-05-21T06:08:16.584Z,3.75
2023-05-21T06:11:19.195Z,3.60
2023-05-21T06:14:22.958Z,2.85
2023-05-21T06:17:25.421Z,3.30
2023-05-21T06:20:29.930Z,3.20
2023-05-21T06:23:32.838Z,3.15
2023-05-21T06:26:35.806Z,3.25
2023-05-21T06:29:40.828Z,3.00
2023-05-21T06:32:43.377Z,3.20
2023-05-21T06:35:45.808Z,3.47
2023-05-21T06:38:48.185Z,3.35
2023-05-21T06:41:50.667Z,3.30
2023-05-21T06:45:17.228Z,2.90
2023-05-21T06:48:20.753Z,2.78
2023-05-21T06:51:23.938Z,3.22
2023-05-21T06:54:27.168Z,2.70
2023-05-21T06:57:30.269Z,2.55
2023-05-21T07:00:34.510Z,2.60
2023-05-21T07:03:37.054Z,2.25
2023-05-21T07:06:39.490Z,2.53
2023-05-21T07:09:41.763Z,2.50
2023-05-21T07:12:45.727Z,2.63
2023-05-21T07:15:49.878Z,2.53
2023-05-21T07:18:53.632Z,3.13
2023-05-21T07:21:56.828Z,2.75
2023-05-21T07:24:59.258Z,3.50
2023-05-21T07:28:01.682Z,3.95
2023-05-21T07:31:05.802Z,3.17
2023-05-21T07:34:14.338Z,2.67
2023-05-21T07:37:17.611Z,3.70
2023-05-21T07:40:20.067Z,2.50
2023-05-21T07:43:22.452Z,3.05
2023-05-21T07:46:26.204Z,3.00
2023-05-21T07:49:31.163Z,2.75
2023-05-21T07:52:33.952Z,2.92
2023-05-21T07:55:36.670Z,2.70
2023-05-21T07:58:40.483Z,2.63
2023-05-21T08:01:44.899Z,2.53
2023-05-21T08:04:47.950Z,3.08
2023-05-21T08:07:50.703Z,2.58
2023-05-21T08:10:54.673Z,2.30
2023-05-21T08:13:59.604Z,3.22
2023-05-21T08:17:04.188Z,3.13
2023-05-21T08:20:07.974Z,2.72
2023-05-21T08:23:12.891Z,3.65
2023-05-21T08:26:22.771Z,3.13
2023-05-21T08:29:25.063Z,3.50
2023-05-21T08:32:29.947Z,3.10
2023-05-21T08:35:32.659Z,3.30
2023-05-21T08:38:46.324Z,4.00
2023-05-21T08:41:53.797Z,3.05
2023-05-21T08:44:59.852Z,2.38
2023-05-21T08:48:04.875Z,3.38
2023-05-21T08:51:09.054Z,3.00
2023-05-21T08:54:17.402Z,2.92
2023-05-21T08:57:20.910Z,2.63
2023-05-21T09:00:24.211Z,3.05
2023-05-21T09:03:29.599Z,3.30
2023-05-21T09:06:33.873Z,3.40
2023-05-21T09:09:42.329Z,3.70
2023-05-21T09:12:44.640Z,3.08
2023-05-21T09:15:47.910Z,3.15
2023-05-21T09:18:53.407Z,3.75
2023-05-21T09:22:02.395Z,3.13
2023-05-21T09:25:08.076Z,3.03
2023-05-21T09:28:14.511Z,3.58
2023-05-21T09:31:16.882Z,3.60
2023-05-21T09:34:21.330Z,3.58
2023-05-21T09:37:27.477Z,3.10
2023-05-21T09:40:30.823Z,3.45
2023-05-21T09:43:33.112Z,3.53
2023-05-21T09:46:40.492Z,3.28
2023-05-21T09:49:44.829Z,3.80
2023-05-21T09:52:47.509Z,3.63
2023-05-21T09:55:53.985Z,4.00
2023-05-21T09:58:57.631Z,3.63
2023-05-21T10:01:59.940Z,3.28
2023-05-21T10:05:09.130Z,3.95
2023-05-21T10:08:12.332Z,3.35
2023-05-21T10:11:15.616Z,3.22
2023-05-21T10:14:21.111Z,3.70
2023-05-21T10:17:23.695Z,4.00
2023-05-21T10:20:27.477Z,3.90
2023-05-21T10:23:30.131Z,4.22
2023-05-21T10:26:32.525Z,3.60
2023-05-21T10:29:35.560Z,3.80
2023-05-21T10:32:40.185Z,4.50
2023-05-21T10:35:45.082Z,3.90
2023-05-21T10:38:47.578Z,3.53
2023-05-21T10:41:55.388Z,4.07
2023-05-21T10:45:06.645Z,3.10
2023-05-21T10:48:19.335Z,4.05
2023-05-21T10:51:25.719Z,3.40
2023-05-21T10:54:42.036Z,3.92
2023-05-21T10:58:06.519Z,4.22
2023-05-21T11:01:11.061Z,3.63
2023-05-21T11:04:15.615Z,4.97
2023-05-21T11:07:51.363Z,4.43
2023-05-21T11:10:54.913Z,4.55
2023-05-21T11:13:57.228Z,4.45
2023-05-21T11:17:01.307Z,3.90
2023-05-21T11:20:05.218Z,3.72
2023-05-21T11:23:12.729Z,4.25
2023-05-21T11:26:15.776Z,4.65
2023-05-21T11:29:18.700Z,4.47
2023-05-21T11:32:20.991Z,4.88
2023-05-21T11:35:23.352Z,4.70
2023-05-21T11:38:28.253Z,4.10
2023-05-21T11:41:30.593Z,5.03
2023-05-21T11:44:39.274Z,5.55
2023-05-21T11:47:41.937Z,4.85
2023-05-21T11:50:45.536Z,4.15
2023-05-21T11:53:49.222Z,4.50
2023-05-21T11:56:51.804Z,5.00
2023-05-21T11:59:55.064Z,4.50
2023-05-21T12:02:58.715Z,5.07
2023-05-21T12:06:05.602Z,3.92
2023-05-21T12:09:09.898Z,3.83
2023-05-21T12:12:16.135Z,4.63
2023-05-21T12:15:18.398Z,4.50
2023-05-21T12:18:21.005Z,5.38
2023-05-21T12:21:23.262Z,5.88
2023-05-21T12:24:29.763Z,4.15
2023-05-21T12:27:33.413Z,4.65
2023-05-21T12:30:37.192Z,5.57
2023-05-21T12:33:39.580Z,4.88
2023-05-21T12:36:46.218Z,4.43
2023-05-21T12:39:52.189Z,4.85
2023-05-21T12:42:55.323Z,4.43
2023-05-21T12:45:58.050Z,4.60
2023-05-21T12:49:00.755Z,4.30
2023-05-21T12:52:06.625Z,4.80
2023-05-21T12:55:16.672Z,4.63
2023-05-21T12:58:22.638Z,4.57
2023-05-21T13:01:25.955Z,4.60
2023-05-21T13:04:29.437Z,4.90
2023-05-21T13:07:35.918Z,4.53
2023-05-21T13:10:40.199Z,4.55
2023-05-21T13:13:43.052Z,4.82
2023-05-21T13:16:47.332Z,5.65
2023-05-21T13:20:09.342Z,5.40
2023-05-21T13:23:12.840Z,4.82
2023-05-21T13:26:16.968Z,5.18
2023-05-21T13:29:19.249Z,5.13
2023-05-21T13:32:22.224Z,4.50
2023-05-21T13:35:24.538Z,5.07
2023-05-21T13:38:26.785Z,5.57
2023-05-21T13:41:30.694Z,4.75
2023-05-21T13:44:36.647Z,4.82
2023-05-21T13:47:40.386Z,4.90
2023-05-21T13:50:43.062Z,5.40
2023-05-21T13:53:45.309Z,5.18
2023-05-21T13:56:49.252Z,5.20
2023-05-21T13:59:51.754Z,5.18
2023-05-21T14:02:54.273Z,4.38
2023-05-21T14:05:57.602Z,4.80
2023-05-21T14:09:00.402Z,5.13
2023-05-21T14:12:06.607Z,4.90
2023-05-21T14:15:10.759Z,4.90
2023-05-21T14:18:13.086Z,5.50
2023-05-21T14:21:15.734Z,4.95
2023-05-21T14:24:18.124Z,4.35
2023-05-21T14:27:21.771Z,4.88
2023-05-21T14:30:26.836Z,5.13
2023-05-21T14:33:31.767Z,5.45
2023-05-21T14:36:34.146Z,4.85
2023-05-21T14:39:36.414Z,4.95
2023-05-21T14:42:40.033Z,5.00
2023-05-21T14:45:42.773Z,4.82
2023-05-21T14:48:46.670Z,5.13
2023-05-21T14:51:49.051Z,4.93
2023-05-21T14:54:51.300Z,5.00
2023-05-21T14:57:54.953Z,5.03
2023-05-21T15:00:57.219Z,5.30
2023-05-21T15:03:59.647Z,5.65
2023-05-21T15:07:02.088Z,4.75
2023-05-21T15:10:06.020Z,5.32
2023-05-21T15:13:09.636Z,4.93
2023-05-21T15:16:11.914Z,4.80
2023-05-21T15:19:14.308Z,6.03
2023-05-21T15:22:16.660Z,5.28
2023-05-21T15:25:20.056Z,4.53
2023-05-21T15:28:23.682Z,5.10
2023-05-21T15:31:25.921Z,5.47
2023-05-21T15:34:28.223Z,5.18
2023-05-21T15:37:32.436Z,5.25
2023-05-21T15:40:34.695Z,5.95
2023-05-21T15:43:38.594Z,5.65
2023-05-21T15:46:40.974Z,6.00
2023-05-21T15:49:43.268Z,6.18
2023-05-21T15:52:45.576Z,5.80
2023-05-21T15:55:47.965Z,5.85
2023-05-21T15:58:51.537Z,5.88
2023-05-21T16:01:54.417Z,6.25
2023-05-21T16:04:56.697Z,6.53
2023-05-21T16:07:58.937Z,5.85
2023-05-21T16:11:01.636Z,5.72
2023-05-21T16:14:06.141Z,5.50
2023-05-21T16:17:08.371Z,5.70
2023-05-21T16:20:11.811Z,5.45
2023-05-21T16:23:14.203Z,6.00
2023-05-21T16:26:16.467Z,5.82
2023-05-21T16:29:21.970Z,5.82
2023-05-21T16:32:26.134Z,6.13
2023-05-21T16:35:28.670Z,6.28
2023-05-21T16:38:31.237Z,5.60
2023-05-21T16:41:33.949Z,5.50
2023-05-21T16:44:37.973Z,5.55
2023-05-21T16:47:40.524Z,5.43
2023-05-21T16:50:42.986Z,5.43
2023-05-21T16:53:45.500Z,5.68
2023-05-21T16:56:47.792Z,5.72
2023-05-21T16:59:51.411Z,5.97
2023-05-21T17:02:53.925Z,5.80
2023-05-21T17:05:56.276Z,5.32
2023-05-21T17:08:58.615Z,6.40
2023-05-21T17:12:01.020Z,5.82
2023-05-21T17:15:06.243Z,5.97
2023-05-21T17:18:08.525Z,6.72
2023-05-21T17:21:10.918Z,6.70
2023-05-21T17:24:13.208Z,6.63
2023-05-21T17:27:16.323Z,6.55
2023-05-21T17:30:19.963Z,7.18
2023-05-21T17:33:23.750Z,7.57
2023-05-21T17:36:28.786Z,7.22
2023-05-21T17:39:31.092Z,7.88
2023-05-21T17:42:35.058Z,7.95
2023-05-21T17:45:38.983Z,6.57
2023-05-21T17:48:41.467Z,6.18
2023-05-21T17:51:44.209Z,5.20
2023-05-21T17:54:46.505Z,7.03
2023-05-21T17:57:48.908Z,8.38
2023-05-21T18:00:52.658Z,9.23
2023-05-21T18:03:54.972Z,8.70
2023-05-21T18:06:57.575Z,8.30
2023-05-21T18:09:59.963Z,9.63
2023-05-21T18:13:02.624Z,10.05
2023-05-21T18:16:06.577Z,9.50
2023-05-21T18:19:10.525Z,9.10
2023-05-21T18:22:14.174Z,9.50
2023-05-21T18:25:16.852Z,7.85
2023-05-21T18:28:19.073Z,9.10
2023-05-21T18:31:22.830Z,8.50
2023-05-21T18:34:25.175Z,8.27
2023-05-21T18:37:30.055Z,9.25
2023-05-21T18:40:33.214Z,8.65
2023-05-21T18:43:35.640Z,9.30
2023-05-21T18:46:39.466Z,9.50
2023-05-21T18:49:41.971Z,9.13
2023-05-21T18:52:44.331Z,8.98
2023-05-21T18:55:46.736Z,8.68
2023-05-21T18:58:49.221Z,8.45
2023-05-21T19:01:53.058Z,8.30
2023-05-21T19:04:55.566Z,7.57
2023-05-21T19:07:59.475Z,7.82
2023-05-21T19:11:02.589Z,7.40
2023-05-21T19:14:05.464Z,7.18
2023-05-21T19:17:09.580Z,6.57
2023-05-21T19:20:22.862Z,7.05
2023-05-21T19:23:25.662Z,6.28
2023-05-21T19:26:28.119Z,6.80
2023-05-21T19:29:31.359Z,5.95
2023-05-21T19:32:36.377Z,6.47
2023-05-21T19:35:39.075Z,5.80
2023-05-21T19:38:47.048Z,6.60
2023-05-21T19:41:49.598Z,5.72
2023-05-21T19:44:52.256Z,6.30
2023-05-21T19:47:56.217Z,5.97
2023-05-21T19:50:58.949Z,6.65
2023-05-21T19:54:02.265Z,5.25
2023-05-21T19:57:05.067Z,5.93
2023-05-21T20:00:10.356Z,6.20
2023-05-21T20:03:20.113Z,6.82
2023-05-21T20:06:23.094Z,5.93
2023-05-21T20:09:25.653Z,5.60
2023-05-21T20:12:28.054Z,5.53
2023-05-21T20:15:30.414Z,5.78
2023-05-21T20:18:34.392Z,6.00
2023-05-21T20:21:36.912Z,6.10
2023-05-21T20:24:39.674Z,5.55
2023-05-21T20:27:42.399Z,7.70
2023-05-21T20:30:57.637Z,5.35
2023-05-21T20:34:01.473Z,6.13
2023-05-21T20:37:03.922Z,6.55
2023-05-21T20:40:09.203Z,5.75
2023-05-21T20:43:15.173Z,6.30
2023-05-21T20:46:18.606Z,5.47
2023-05-21T20:49:24.899Z,5.72
2023-05-21T20:52:27.537Z,5.10
2023-05-21T20:55:34.750Z,4.68
2023-05-21T20:58:37.156Z,4.40
2023-05-21T21:01:40.771Z,4.93
2023-05-21T21:04:45.838Z,5.18
2023-05-21T21:07:48.288Z,5.20
2023-05-21T21:10:50.860Z,4.97
2023-05-21T21:13:53.489Z,5.65
2023-05-21T21:16:55.838Z,4.97
2023-05-21T21:19:59.654Z,5.07
2023-05-21T21:23:02.032Z,5.63
2023-05-21T21:26:05.039Z,6.38
2023-05-21T21:29:07.454Z,6.22
2023-05-21T21:32:09.905Z,6.53
2023-05-21T21:35:13.732Z,7.43
2023-05-21T21:38:16.134Z,7.78
2023-05-21T21:41:20.425Z,7.15
2023-05-21T21:44:22.745Z,9.30
2023-05-21T21:47:25.422Z,8.77
2023-05-21T21:50:29.174Z,8.63
2023-05-21T21:53:31.609Z,9.88
2023-05-21T21:56:34.214Z,9.02
2023-05-21T21:59:38.346Z,10.70
2023-05-21T22:02:40.779Z,10.65
2023-05-21T22:05:44.786Z,10.57
2023-05-21T22:08:47.122Z,11.95
2023-05-21T22:11:49.588Z,10.65
2023-05-21T22:14:51.926Z,12.40
2023-05-21T22:17:54.734Z,11.90
2023-05-21T22:21:00.063Z,11.50
2023-05-21T22:24:02.813Z,11.25
2023-05-21T22:27:06.487Z,14.10
2023-05-21T22:30:09.930Z,13.27
2023-05-21T22:33:12.365Z,13.02
2023-05-21T22:36:16.049Z,13.63
2023-05-21T22:39:18.518Z,13.27
2023-05-21T22:42:20.916Z,15.40
2023-05-21T22:45:23.650Z,15.23
2023-05-21T22:48:26.428Z,16.30
2023-05-21T22:51:34.723Z,15.40
2023-05-21T22:54:37.392Z,15.57
2023-05-21T22:57:40.051Z,15.68
2023-05-21T23:00:42.919Z,16.88
2023-05-21T23:03:45.286Z,17.70
2023-05-21T23:06:49.414Z,17.77
2023-05-21T23:09:52.061Z,16.80
2023-05-21T23:12:54.453Z,16.27
2023-05-21T23:15:58.932Z,16.08
2023-05-21T23:19:02.658Z,16.77
2023-05-21T23:22:06.660Z,16.60
2023-05-21T23:25:09.934Z,16.67
2023-05-21T23:28:12.223Z,17.55
2023-05-21T23:31:14.645Z,17.02
2023-05-21T23:34:16.977Z,19.15
2023-05-21T23:37:20.889Z,18.33
2023-05-21T23:40:23.273Z,20.17
2023-05-21T23:43:25.698Z,18.23
2023-05-21T23:46:28.357Z,18.70
2023-05-21T23:49:30.746Z,17.92
2023-05-21T23:52:34.438Z,17.55
2023-05-21T23:55:37.158Z,17.30
2023-05-21T23:58:39.659Z,17.15
